sensor_id;sensor_type;location;lat;lon;timestamp;pressure;altitude;pressure_sealevel;temperature;humidity
21658;BME280;10990;48.174;9.782;2023-03-16T00:00:14;94916.25;;;0.87;100.00
21658;BME280;10990;48.174;9.782;2023-03-16T00:02:42;94908.00;;;0.94;100.00
21658;BME280;10990;48.174;9.782;2023-03-16T00:05:10;94930.06;;;0.64;100.00
21658;BME280;10990;48.174;9.782;2023-03-16T00:07:37;94906.00;;;0.97;100.00
21658;BME280;10990;48.174;9.782;2023-03-16T00:10:07;94895.56;;;1.10;100.00
21658;BME280;10990;48.174;9.782;2023-03-16T00:12:35;94910.28;;;1.22;100.00
21658;BME280;10990;48.174;9.782;2023-03-16T00:15:02;94922.81;;;1.17;100.00
21658;BME280;10990;48.174;9.782;2023-03-16T00:17:29;94942.25;;;1.00;100.00
21658;BME280;10990;48.174;9.782;2023-03-16T00:19:56;94942.25;;;1.00;100.00
21658;BME280;10990;48.174;9.782;2023-03-16T00:22:24;94943.34;;;0.85;100.00
21658;BME280;10990;48.174;9.782;2023-03-16T00:24:51;94945.09;;;0.84;100.00
21658;BME280;10990;48.174;9.782;2023-03-16T00:27:18;94938.28;;;0.95;100.00
21658;BME280;10990;48.174;9.782;2023-03-16T00:29:50;94952.28;;;0.94;100.00
21658;BME280;10990;48.174;9.782;2023-03-16T00:32:21;94949.06;;;0.77;100.00
21658;BME280;10990;48.174;9.782;2023-03-16T00:34:49;94951.69;;;0.64;100.00
21658;BME280;10990;48.174;9.782;2023-03-16T00:37:17;94936.34;;;0.49;100.00
21658;BME280;10990;48.174;9.782;2023-03-16T00:39:45;94928.00;;;0.31;100.00
21658;BME280;10990;48.174;9.782;2023-03-16T00:42:14;94908.47;;;0.25;100.00
21658;BME280;10990;48.174;9.782;2023-03-16T00:44:41;94884.09;;;0.39;100.00
21658;BME280;10990;48.174;9.782;2023-03-16T00:47:10;94859.63;;;0.54;100.00
21658;BME280;10990;48.174;9.782;2023-03-16T00:49:39;94850.72;;;0.70;100.00
21658;BME280;10990;48.174;9.782;2023-03-16T00:52:08;94838.94;;;0.77;100.00
21658;BME280;10990;48.174;9.782;2023-03-16T00:54:39;94829.63;;;0.85;100.00
21658;BME280;10990;48.174;9.782;2023-03-16T00:57:09;94839.81;;;0.64;100.00
21658;BME280;10990;48.174;9.782;2023-03-16T00:59:37;94849.75;;;0.47;100.00
21658;BME280;10990;48.174;9.782;2023-03-16T01:02:05;94837.41;;;0.61;100.00
21658;BME280;10990;48.174;9.782;2023-03-16T01:04:34;94824.59;;;0.71;100.00
21658;BME280;10990;48.174;9.782;2023-03-16T01:07:01;94817.91;;;0.80;100.00
21658;BME280;10990;48.174;9.782;2023-03-16T01:09:29;94853.09;;;0.49;100.00
21658;BME280;10990;48.174;9.782;2023-03-16T01:12:01;94859.34;;;0.33;100.00
21658;BME280;10990;48.174;9.782;2023-03-16T01:14:31;94855.63;;;0.61;100.00
21658;BME280;10990;48.174;9.782;2023-03-16T01:16:59;94863.72;;;0.46;100.00
21658;BME280;10990;48.174;9.782;2023-03-16T01:19:26;94863.63;;;0.34;100.00
21658;BME280;10990;48.174;9.782;2023-03-16T01:21:55;94855.19;;;0.31;100.00
21658;BME280;10990;48.174;9.782;2023-03-16T01:24:21;94837.28;;;0.39;100.00
21658;BME280;10990;48.174;9.782;2023-03-16T01:26:49;94840.84;;;0.38;100.00
21658;BME280;10990;48.174;9.782;2023-03-16T01:29:16;94836.97;;;0.43;100.00
21658;BME280;10990;48.174;9.782;2023-03-16T01:31:43;94840.53;;;0.42;100.00
21658;BME280;10990;48.174;9.782;2023-03-16T01:34:10;94835.72;;;0.36;100.00
21658;BME280;10990;48.174;9.782;2023-03-16T01:36:41;94835.41;;;0.41;100.00
21658;BME280;10990;48.174;9.782;2023-03-16T01:39:11;94849.78;;;0.34;100.00
21658;BME280;10990;48.174;9.782;2023-03-16T01:41:42;94841.78;;;0.37;100.00
21658;BME280;10990;48.174;9.782;2023-03-16T01:44:11;94836.84;;;0.45;100.00
21658;BME280;10990;48.174;9.782;2023-03-16T01:46:39;94845.66;;;0.18;100.00
21658;BME280;10990;48.174;9.782;2023-03-16T01:49:10;94835.66;;;0.25;100.00
21658;BME280;10990;48.174;9.782;2023-03-16T01:51:41;94830.16;;;0.17;100.00
21658;BME280;10990;48.174;9.782;2023-03-16T01:54:15;94829.75;;;0.23;100.00
21658;BME280;10990;48.174;9.782;2023-03-16T01:56:47;94836.22;;;0.17;100.00
21658;BME280;10990;48.174;9.782;2023-03-16T01:59:17;94844.84;;;0.05;100.00
21658;BME280;10990;48.174;9.782;2023-03-16T02:01:47;94853.78;;;-0.12;100.00
21658;BME280;10990;48.174;9.782;2023-03-16T02:04:26;94860.34;;;-0.06;100.00
21658;BME280;10990;48.174;9.782;2023-03-16T02:07:00;94883.94;;;-0.35;100.00
21658;BME280;10990;48.174;9.782;2023-03-16T02:09:30;94885.09;;;-0.26;100.00
21658;BME280;10990;48.174;9.782;2023-03-16T02:11:57;94889.97;;;-0.47;100.00
21658;BME280;10990;48.174;9.782;2023-03-16T02:14:27;94881.22;;;-0.46;100.00
21658;BME280;10990;48.174;9.782;2023-03-16T02:16:55;94875.09;;;-0.32;100.00
21658;BME280;10990;48.174;9.782;2023-03-16T02:19:32;94868.78;;;-0.15;100.00
21658;BME280;10990;48.174;9.782;2023-03-16T02:22:03;94872.19;;;-0.15;100.00
21658;BME280;10990;48.174;9.782;2023-03-16T02:24:33;94866.91;;;-0.26;100.00
21658;BME280;10990;48.174;9.782;2023-03-16T02:27:03;94871.97;;;-0.37;100.00
21658;BME280;10990;48.174;9.782;2023-03-16T02:29:57;94864.72;;;-0.19;100.00
21658;BME280;10990;48.174;9.782;2023-03-16T02:32:31;94878.84;;;-0.36;100.00
21658;BME280;10990;48.174;9.782;2023-03-16T02:35:00;94899.63;;;-0.89;100.00
21658;BME280;10990;48.174;9.782;2023-03-16T02:37:28;94876.94;;;-0.60;100.00
21658;BME280;10990;48.174;9.782;2023-03-16T02:39:58;94871.06;;;-0.36;100.00
21658;BME280;10990;48.174;9.782;2023-03-16T02:42:27;94877.88;;;-0.48;100.00
21658;BME280;10990;48.174;9.782;2023-03-16T02:44:59;94887.03;;;-0.55;100.00
21658;BME280;10990;48.174;9.782;2023-03-16T02:47:34;94874.59;;;-0.50;100.00
21658;BME280;10990;48.174;9.782;2023-03-16T02:50:02;94868.03;;;-0.43;100.00
21658;BME280;10990;48.174;9.782;2023-03-16T02:52:31;94872.19;;;-0.40;100.00
21658;BME280;10990;48.174;9.782;2023-03-16T02:54:58;94879.25;;;-0.55;100.00
21658;BME280;10990;48.174;9.782;2023-03-16T02:57:25;94879.13;;;-0.66;100.00
21658;BME280;10990;48.174;9.782;2023-03-16T02:59:55;94885.00;;;-0.90;100.00
21658;BME280;10990;48.174;9.782;2023-03-16T03:02:24;94882.19;;;-1.14;100.00
21658;BME280;10990;48.174;9.782;2023-03-16T03:04:50;94846.47;;;-0.83;100.00
21658;BME280;10990;48.174;9.782;2023-03-16T03:07:20;94863.97;;;-1.00;100.00
21658;BME280;10990;48.174;9.782;2023-03-16T03:10:04;94851.06;;;-0.74;100.00
21658;BME280;10990;48.174;9.782;2023-03-16T03:12:31;94842.69;;;-0.52;100.00
21658;BME280;10990;48.174;9.782;2023-03-16T03:14:58;94848.16;;;-0.57;100.00
21658;BME280;10990;48.174;9.782;2023-03-16T03:17:32;94852.84;;;-0.49;100.00
21658;BME280;10990;48.174;9.782;2023-03-16T03:20:00;94863.00;;;-0.72;100.00
21658;BME280;10990;48.174;9.782;2023-03-16T03:22:32;94847.13;;;-0.67;100.00
21658;BME280;10990;48.174;9.782;2023-03-16T03:24:59;94817.84;;;-0.56;100.00
21658;BME280;10990;48.174;9.782;2023-03-16T03:27:27;94801.09;;;-0.65;100.00
21658;BME280;10990;48.174;9.782;2023-03-16T03:29:54;94778.91;;;-0.56;100.00
21658;BME280;10990;48.174;9.782;2023-03-16T03:32:21;94740.22;;;-0.48;100.00
21658;BME280;10990;48.174;9.782;2023-03-16T03:34:49;94716.03;;;-0.49;100.00
21658;BME280;10990;48.174;9.782;2023-03-16T03:37:17;94670.75;;;-0.44;100.00
21658;BME280;10990;48.174;9.782;2023-03-16T03:39:44;94642.94;;;-0.31;100.00
21658;BME280;10990;48.174;9.782;2023-03-16T03:42:11;94628.75;;;-0.38;100.00
21658;BME280;10990;48.174;9.782;2023-03-16T03:44:39;94615.91;;;-0.29;100.00
21658;BME280;10990;48.174;9.782;2023-03-16T03:47:06;94615.69;;;-0.50;100.00
21658;BME280;10990;48.174;9.782;2023-03-16T03:49:33;94600.97;;;-0.25;100.00
21658;BME280;10990;48.174;9.782;2023-03-16T03:52:01;94590.84;;;-0.41;100.00
21658;BME280;10990;48.174;9.782;2023-03-16T03:54:29;94569.72;;;-0.36;100.00
21658;BME280;10990;48.174;9.782;2023-03-16T03:57:04;94519.78;;;-0.29;100.00
21658;BME280;10990;48.174;9.782;2023-03-16T03:59:31;94536.06;;;-0.38;100.00
21658;BME280;10990;48.174;9.782;2023-03-16T04:02:21;94518.69;;;-0.37;100.00
21658;BME280;10990;48.174;9.782;2023-03-16T04:04:51;94502.44;;;-0.39;100.00
21658;BME280;10990;48.174;9.782;2023-03-16T04:07:19;94496.44;;;-0.53;100.00
21658;BME280;10990;48.174;9.782;2023-03-16T04:09:47;94513.75;;;-0.64;100.00
21658;BME280;10990;48.174;9.782;2023-03-16T04:12:26;94487.78;;;-0.64;100.00
21658;BME280;10990;48.174;9.782;2023-03-16T04:14:54;94469.38;;;-0.61;100.00
21658;BME280;10990;48.174;9.782;2023-03-16T04:17:22;94466.00;;;-0.75;100.00
21658;BME280;10990;48.174;9.782;2023-03-16T04:19:50;94461.00;;;-0.89;100.00
21658;BME280;10990;48.174;9.782;2023-03-16T04:22:19;94430.59;;;-0.52;100.00
21658;BME280;10990;48.174;9.782;2023-03-16T04:24:47;94417.59;;;-0.52;100.00
21658;BME280;10990;48.174;9.782;2023-03-16T04:27:17;94421.56;;;-0.70;100.00
21658;BME280;10990;48.174;9.782;2023-03-16T04:29:44;94401.72;;;-0.71;100.00
21658;BME280;10990;48.174;9.782;2023-03-16T04:32:11;94395.19;;;-0.77;100.00
21658;BME280;10990;48.174;9.782;2023-03-16T04:34:39;94378.72;;;-0.76;100.00
21658;BME280;10990;48.174;9.782;2023-03-16T04:37:10;94375.13;;;-0.86;100.00
21658;BME280;10990;48.174;9.782;2023-03-16T04:39:42;94351.72;;;-0.62;100.00
21658;BME280;10990;48.174;9.782;2023-03-16T04:42:09;94369.25;;;-0.77;100.00
21658;BME280;10990;48.174;9.782;2023-03-16T04:44:37;94373.94;;;-0.82;100.00
21658;BME280;10990;48.174;9.782;2023-03-16T04:47:09;94375.13;;;-0.86;100.00
21658;BME280;10990;48.174;9.782;2023-03-16T04:49:39;94361.31;;;-0.86;100.00
21658;BME280;10990;48.174;9.782;2023-03-16T04:52:06;94365.00;;;-0.78;100.00
21658;BME280;10990;48.174;9.782;2023-03-16T04:54:34;94377.16;;;-1.02;100.00
21658;BME280;10990;48.174;9.782;2023-03-16T04:57:02;94379.44;;;-0.98;100.00
21658;BME280;10990;48.174;9.782;2023-03-16T04:59:36;94370.84;;;-0.98;100.00
21658;BME280;10990;48.174;9.782;2023-03-16T05:02:11;94373.84;;;-1.04;100.00
21658;BME280;10990;48.174;9.782;2023-03-16T05:04:39;94372.13;;;-1.04;100.00
21658;BME280;10990;48.174;9.782;2023-03-16T05:07:09;94379.63;;;-1.12;100.00
21658;BME280;10990;48.174;9.782;2023-03-16T05:09:39;94375.31;;;-1.00;100.00
21658;BME280;10990;48.174;9.782;2023-03-16T05:12:08;94365.19;;;-0.92;100.00
21658;BME280;10990;48.174;9.782;2023-03-16T05:14:35;94359.41;;;-0.96;100.00
21658;BME280;10990;48.174;9.782;2023-03-16T05:17:19;94360.69;;;-1.01;100.00
21658;BME280;10990;48.174;9.782;2023-03-16T05:19:47;94348.91;;;-0.94;100.00
21658;BME280;10990;48.174;9.782;2023-03-16T05:22:15;94329.97;;;-0.72;100.00
21658;BME280;10990;48.174;9.782;2023-03-16T05:25:00;94340.34;;;-0.83;100.00
21658;BME280;10990;48.174;9.782;2023-03-16T05:27:29;94353.19;;;-1.17;100.00
21658;BME280;10990;48.174;9.782;2023-03-16T05:29:56;94350.59;;;-1.17;100.00
21658;BME280;10990;48.174;9.782;2023-03-16T05:32:23;94340.22;;;-1.17;100.00
21658;BME280;10990;48.174;9.782;2023-03-16T05:34:50;94323.59;;;-1.15;100.00
21658;BME280;10990;48.174;9.782;2023-03-16T05:37:19;94310.44;;;-1.00;100.00
21658;BME280;10990;48.174;9.782;2023-03-16T05:39:46;94309.94;;;-1.05;100.00
21658;BME280;10990;48.174;9.782;2023-03-16T05:42:13;94286.06;;;-0.86;100.00
21658;BME280;10990;48.174;9.782;2023-03-16T05:44:48;94290.25;;;-0.97;100.00
21658;BME280;10990;48.174;9.782;2023-03-16T05:47:23;94308.72;;;-1.24;100.00
21658;BME280;10990;48.174;9.782;2023-03-16T05:49:54;94302.41;;;-1.56;100.00
21658;BME280;10990;48.174;9.782;2023-03-16T05:52:28;94283.22;;;-1.54;100.00
21658;BME280;10990;48.174;9.782;2023-03-16T05:54:57;94268.50;;;-1.53;100.00
21658;BME280;10990;48.174;9.782;2023-03-16T05:57:26;94251.13;;;-1.40;100.00
21658;BME280;10990;48.174;9.782;2023-03-16T05:59:55;94251.59;;;-1.35;100.00
21658;BME280;10990;48.174;9.782;2023-03-16T06:02:22;94250.63;;;-1.45;100.00
21658;BME280;10990;48.174;9.782;2023-03-16T06:04:51;94253.09;;;-1.44;100.00
21658;BME280;10990;48.174;9.782;2023-03-16T06:07:18;94253.84;;;-1.66;100.00
21658;BME280;10990;48.174;9.782;2023-03-16T06:09:48;94224.78;;;-1.47;100.00
21658;BME280;10990;48.174;9.782;2023-03-16T06:12:15;94228.75;;;-1.65;100.00
21658;BME280;10990;48.174;9.782;2023-03-16T06:14:42;94216.88;;;-1.56;100.00
21658;BME280;10990;48.174;9.782;2023-03-16T06:17:11;94198.34;;;-1.28;100.00
21658;BME280;10990;48.174;9.782;2023-03-16T06:19:40;94184.91;;;-1.10;100.00
21658;BME280;10990;48.174;9.782;2023-03-16T06:22:07;94177.63;;;-1.05;100.00
21658;BME280;10990;48.174;9.782;2023-03-16T06:24:33;94189.84;;;-1.19;100.00
21658;BME280;10990;48.174;9.782;2023-03-16T06:27:00;94176.81;;;-0.95;100.00
21658;BME280;10990;48.174;9.782;2023-03-16T06:29:33;94169.50;;;-0.89;100.00
21658;BME280;10990;48.174;9.782;2023-03-16T06:32:01;94170.44;;;-0.91;100.00
21658;BME280;10990;48.174;9.782;2023-03-16T06:34:30;94154.88;;;-0.79;100.00
21658;BME280;10990;48.174;9.782;2023-03-16T06:37:00;94144.84;;;-0.61;100.00
21658;BME280;10990;48.174;9.782;2023-03-16T06:39:26;94155.47;;;-0.53;100.00
21658;BME280;10990;48.174;9.782;2023-03-16T06:41:53;94157.34;;;-0.55;100.00
21658;BME280;10990;48.174;9.782;2023-03-16T06:44:21;94185.31;;;-0.93;100.00
21658;BME280;10990;48.174;9.782;2023-03-16T06:46:57;94187.69;;;-0.89;100.00
21658;BME280;10990;48.174;9.782;2023-03-16T06:49:24;94177.66;;;-0.72;100.00
21658;BME280;10990;48.174;9.782;2023-03-16T06:51:52;94179.06;;;-0.79;100.00
21658;BME280;10990;48.174;9.782;2023-03-16T06:54:22;94191.81;;;-0.87;100.00
21658;BME280;10990;48.174;9.782;2023-03-16T06:56:49;94191.31;;;-0.92;100.00
21658;BME280;10990;48.174;9.782;2023-03-16T06:59:16;94201.22;;;-0.86;100.00
21658;BME280;10990;48.174;9.782;2023-03-16T07:01:43;94197.09;;;-0.77;100.00
21658;BME280;10990;48.174;9.782;2023-03-16T07:04:10;94214.19;;;-0.97;100.00
21658;BME280;10990;48.174;9.782;2023-03-16T07:06:38;94220.56;;;-1.01;100.00
21658;BME280;10990;48.174;9.782;2023-03-16T07:09:07;94211.72;;;-0.87;100.00
21658;BME280;10990;48.174;9.782;2023-03-16T07:11:34;94208.09;;;-0.51;100.00
21658;BME280;10990;48.174;9.782;2023-03-16T07:14:01;94208.31;;;-0.43;100.00
21658;BME280;10990;48.174;9.782;2023-03-16T07:16:30;94210.56;;;-0.27;100.00
21658;BME280;10990;48.174;9.782;2023-03-16T07:19:00;94236.66;;;-0.51;100.00
21658;BME280;10990;48.174;9.782;2023-03-16T07:21:26;94245.88;;;-0.25;100.00
21658;BME280;10990;48.174;9.782;2023-03-16T07:23:53;94266.66;;;-0.36;100.00
21658;BME280;10990;48.174;9.782;2023-03-16T07:26:25;94274.44;;;-0.47;100.00
21658;BME280;10990;48.174;9.782;2023-03-16T07:28:56;94281.84;;;-0.42;100.00
21658;BME280;10990;48.174;9.782;2023-03-16T07:31:23;94273.47;;;-0.24;100.00
21658;BME280;10990;48.174;9.782;2023-03-16T07:33:50;94293.91;;;-0.30;100.00
21658;BME280;10990;48.174;9.782;2023-03-16T07:36:26;94291.78;;;-0.03;100.00
21658;BME280;10990;48.174;9.782;2023-03-16T07:38:57;94307.41;;;-0.14;100.00
21658;BME280;10990;48.174;9.782;2023-03-16T07:41:25;94319.19;;;-0.10;100.00
21658;BME280;10990;48.174;9.782;2023-03-16T07:44:00;94341.19;;;-0.14;100.00
21658;BME280;10990;48.174;9.782;2023-03-16T07:46:28;94344.00;;;-0.06;100.00
21658;BME280;10990;48.174;9.782;2023-03-16T07:48:57;94355.00;;;-0.13;100.00
21658;BME280;10990;48.174;9.782;2023-03-16T07:51:24;94364.44;;;-0.01;100.00
21658;BME280;10990;48.174;9.782;2023-03-16T07:53:51;94364.19;;;0.02;100.00
21658;BME280;10990;48.174;9.782;2023-03-16T07:56:26;94389.22;;;-0.31;100.00
21658;BME280;10990;48.174;9.782;2023-03-16T07:58:56;94371.06;;;0.03;100.00
21658;BME280;10990;48.174;9.782;2023-03-16T08:01:23;94357.91;;;0.50;100.00
21658;BME280;10990;48.174;9.782;2023-03-16T08:03:49;94384.28;;;0.22;100.00
21658;BME280;10990;48.174;9.782;2023-03-16T08:06:17;94389.03;;;0.40;100.00
21658;BME280;10990;48.174;9.782;2023-03-16T08:08:44;94391.25;;;0.33;100.00
21658;BME280;10990;48.174;9.782;2023-03-16T08:11:22;94397.16;;;0.47;100.00
21658;BME280;10990;48.174;9.782;2023-03-16T08:13:55;94411.81;;;0.36;100.00
21658;BME280;10990;48.174;9.782;2023-03-16T08:16:27;94412.75;;;0.47;100.00
21658;BME280;10990;48.174;9.782;2023-03-16T08:18:56;94417.59;;;0.62;100.00
21658;BME280;10990;48.174;9.782;2023-03-16T08:21:25;94410.84;;;0.71;100.00
21658;BME280;10990;48.174;9.782;2023-03-16T08:23:52;94414.63;;;0.67;100.00
21658;BME280;10990;48.174;9.782;2023-03-16T08:26:20;94414.81;;;0.98;100.00
21658;BME280;10990;48.174;9.782;2023-03-16T08:28:52;94432.75;;;0.57;100.00
21658;BME280;10990;48.174;9.782;2023-03-16T08:31:21;94438.66;;;0.59;100.00
21658;BME280;10990;48.174;9.782;2023-03-16T08:34:04;94442.44;;;0.66;100.00
21658;BME280;10990;48.174;9.782;2023-03-16T08:36:36;94441.72;;;0.53;100.00
21658;BME280;10990;48.174;9.782;2023-03-16T08:39:03;94435.44;;;0.67;100.00
21658;BME280;10990;48.174;9.782;2023-03-16T08:41:31;94434.59;;;0.78;100.00
21658;BME280;10990;48.174;9.782;2023-03-16T08:44:03;94444.19;;;0.77;100.00
21658;BME280;10990;48.174;9.782;2023-03-16T08:46:32;94437.19;;;0.89;100.00
21658;BME280;10990;48.174;9.782;2023-03-16T08:49:00;94449.53;;;0.53;100.00
21658;BME280;10990;48.174;9.782;2023-03-16T08:51:27;94434.13;;;0.73;100.00
21658;BME280;10990;48.174;9.782;2023-03-16T08:53:55;94418.28;;;1.30;100.00
21658;BME280;10990;48.174;9.782;2023-03-16T08:56:22;94428.53;;;1.32;100.00
21658;BME280;10990;48.174;9.782;2023-03-16T08:58:48;94448.84;;;1.17;100.00
21658;BME280;10990;48.174;9.782;2023-03-16T09:01:16;94454.53;;;1.11;100.00
21658;BME280;10990;48.174;9.782;2023-03-16T09:03:45;94462.63;;;0.97;100.00
21658;BME280;10990;48.174;9.782;2023-03-16T09:06:14;94444.44;;;1.29;100.00
21658;BME280;10990;48.174;9.782;2023-03-16T09:08:41;94448.38;;;1.12;100.00
21658;BME280;10990;48.174;9.782;2023-03-16T09:11:12;94443.50;;;1.30;100.00
21658;BME280;10990;48.174;9.782;2023-03-16T09:13:40;94432.94;;;1.64;100.00
21658;BME280;10990;48.174;9.782;2023-03-16T09:16:08;94421.31;;;1.89;100.00
21658;BME280;10990;48.174;9.782;2023-03-16T09:18:37;94427.34;;;1.89;100.00
21658;BME280;10990;48.174;9.782;2023-03-16T09:21:07;94426.19;;;2.24;100.00
21658;BME280;10990;48.174;9.782;2023-03-16T09:23:34;94412.19;;;3.06;100.00
21658;BME280;10990;48.174;9.782;2023-03-16T09:26:04;94460.38;;;2.52;100.00
21658;BME280;10990;48.174;9.782;2023-03-16T09:28:33;94468.06;;;2.53;100.00
21658;BME280;10990;48.174;9.782;2023-03-16T09:31:01;94462.88;;;2.94;100.00
21658;BME280;10990;48.174;9.782;2023-03-16T09:33:29;94464.16;;;3.09;100.00
21658;BME280;10990;48.174;9.782;2023-03-16T09:35:56;94444.84;;;3.89;100.00
21658;BME280;10990;48.174;9.782;2023-03-16T09:38:25;94422.91;;;5.39;100.00
21658;BME280;10990;48.174;9.782;2023-03-16T09:40:56;94491.66;;;5.06;100.00
21658;BME280;10990;48.174;9.782;2023-03-16T09:43:42;94498.94;;;5.12;100.00
21658;BME280;10990;48.174;9.782;2023-03-16T09:46:14;94510.34;;;4.83;100.00
21658;BME280;10990;48.174;9.782;2023-03-16T09:48:45;94512.53;;;4.51;100.00
21658;BME280;10990;48.174;9.782;2023-03-16T09:51:17;94508.72;;;4.82;100.00
21658;BME280;10990;48.174;9.782;2023-03-16T09:53:48;94464.59;;;6.84;100.00
21658;BME280;10990;48.174;9.782;2023-03-16T09:56:23;94578.03;;;4.88;100.00
21658;BME280;10990;48.174;9.782;2023-03-16T09:58:53;94572.19;;;4.27;100.00
21658;BME280;10990;48.174;9.782;2023-03-16T10:01:27;94556.91;;;4.23;100.00
21658;BME280;10990;48.174;9.782;2023-03-16T10:04:08;94538.41;;;4.54;100.00
21658;BME280;10990;48.174;9.782;2023-03-16T10:06:45;94500.44;;;4.77;100.00
21658;BME280;10990;48.174;9.782;2023-03-16T10:09:23;94459.16;;;4.99;100.00
21658;BME280;10990;48.174;9.782;2023-03-16T10:11:56;94446.06;;;6.94;100.00
21658;BME280;10990;48.174;9.782;2023-03-16T10:14:29;94437.41;;;7.52;100.00
21658;BME280;10990;48.174;9.782;2023-03-16T10:16:59;94434.66;;;8.19;100.00
21658;BME280;10990;48.174;9.782;2023-03-16T10:19:33;94549.84;;;8.01;100.00
21658;BME280;10990;48.174;9.782;2023-03-16T10:22:16;94631.78;;;7.29;100.00
21658;BME280;10990;48.174;9.782;2023-03-16T10:24:52;94586.41;;;7.61;100.00
21658;BME280;10990;48.174;9.782;2023-03-16T10:27:25;94539.13;;;9.33;100.00
21658;BME280;10990;48.174;9.782;2023-03-16T10:29:54;94631.28;;;10.07;100.00
21658;BME280;10990;48.174;9.782;2023-03-16T10:32:21;94781.25;;;8.72;100.00
21658;BME280;10990;48.174;9.782;2023-03-16T10:34:56;94843.03;;;8.70;100.00
21658;BME280;10990;48.174;9.782;2023-03-16T10:37:25;94884.53;;;9.02;100.00
21658;BME280;10990;48.174;9.782;2023-03-16T10:39:56;94898.34;;;8.88;100.00
21658;BME280;10990;48.174;9.782;2023-03-16T10:42:25;94914.94;;;8.10;100.00
21658;BME280;10990;48.174;9.782;2023-03-16T10:44:56;94898.19;;;8.63;100.00
21658;BME280;10990;48.174;9.782;2023-03-16T10:47:26;94927.97;;;8.82;100.00
21658;BME280;10990;48.174;9.782;2023-03-16T10:49:54;94965.22;;;8.87;100.00
21658;BME280;10990;48.174;9.782;2023-03-16T10:52:25;94990.78;;;7.43;100.00
21658;BME280;10990;48.174;9.782;2023-03-16T10:54:57;94935.66;;;7.24;100.00
21658;BME280;10990;48.174;9.782;2023-03-16T10:57:29;94921.25;;;7.28;100.00
21658;BME280;10990;48.174;9.782;2023-03-16T10:59:59;94907.28;;;8.17;100.00
21658;BME280;10990;48.174;9.782;2023-03-16T11:02:40;94979.81;;;8.11;100.00
21658;BME280;10990;48.174;9.782;2023-03-16T11:05:12;94988.81;;;8.26;100.00
21658;BME280;10990;48.174;9.782;2023-03-16T11:07:47;94979.03;;;8.55;100.00
21658;BME280;10990;48.174;9.782;2023-03-16T11:10:25;95004.63;;;8.26;100.00
21658;BME280;10990;48.174;9.782;2023-03-16T11:12:53;95010.22;;;8.59;100.00
21658;BME280;10990;48.174;9.782;2023-03-16T11:15:20;95026.75;;;7.52;100.00
21658;BME280;10990;48.174;9.782;2023-03-16T11:17:49;94978.59;;;7.88;100.00
21658;BME280;10990;48.174;9.782;2023-03-16T11:20:21;94981.00;;;7.35;100.00
21658;BME280;10990;48.174;9.782;2023-03-16T11:22:51;94960.25;;;7.96;100.00
21658;BME280;10990;48.174;9.782;2023-03-16T11:25:23;94956.50;;;7.80;100.00
21658;BME280;10990;48.174;9.782;2023-03-16T11:27:57;94964.94;;;7.56;100.00
21658;BME280;10990;48.174;9.782;2023-03-16T11:30:28;94948.38;;;7.92;100.00
21658;BME280;10990;48.174;9.782;2023-03-16T11:32:56;94947.72;;;7.44;100.00
21658;BME280;10990;48.174;9.782;2023-03-16T11:35:28;94895.41;;;7.77;100.00
21658;BME280;10990;48.174;9.782;2023-03-16T11:38:09;94876.72;;;8.06;100.00
21658;BME280;10990;48.174;9.782;2023-03-16T11:40:47;94873.72;;;8.01;100.00
21658;BME280;10990;48.174;9.782;2023-03-16T11:43:36;94899.84;;;7.58;100.00
21658;BME280;10990;48.174;9.782;2023-03-16T11:46:13;94892.94;;;7.57;100.00
21658;BME280;10990;48.174;9.782;2023-03-16T11:48:44;94869.69;;;7.71;100.00
21658;BME280;10990;48.174;9.782;2023-03-16T11:51:28;94893.53;;;7.87;100.00
21658;BME280;10990;48.174;9.782;2023-03-16T11:54:05;94911.13;;;7.86;100.00
21658;BME280;10990;48.174;9.782;2023-03-16T11:56:42;94929.84;;;8.01;100.00
21658;BME280;10990;48.174;9.782;2023-03-16T11:59:46;94941.72;;;8.23;100.00
21658;BME280;10990;48.174;9.782;2023-03-16T12:02:32;94954.13;;;8.13;100.00
21658;BME280;10990;48.174;9.782;2023-03-16T12:08:06;95000.13;;;8.37;100.00
21658;BME280;10990;48.174;9.782;2023-03-16T12:10:39;94984.63;;;8.34;100.00
21658;BME280;10990;48.174;9.782;2023-03-16T12:13:18;94999.06;;;8.29;100.00
21658;BME280;10990;48.174;9.782;2023-03-16T12:15:57;95014.03;;;8.29;100.00
21658;BME280;10990;48.174;9.782;2023-03-16T12:18:34;95018.94;;;8.24;100.00
21658;BME280;10990;48.174;9.782;2023-03-16T12:21:04;95033.03;;;8.50;100.00
21658;BME280;10990;48.174;9.782;2023-03-16T12:23:40;95077.28;;;8.29;100.00
21658;BME280;10990;48.174;9.782;2023-03-16T12:26:09;95055.78;;;8.51;100.00
21658;BME280;10990;48.174;9.782;2023-03-16T12:28:38;95092.31;;;8.19;100.00
21658;BME280;10990;48.174;9.782;2023-03-16T12:31:10;95063.00;;;8.67;100.00
21658;BME280;10990;48.174;9.782;2023-03-16T12:33:47;95128.03;;;8.67;100.00
21658;BME280;10990;48.174;9.782;2023-03-16T12:36:54;95142.44;;;8.90;100.00
21658;BME280;10990;48.174;9.782;2023-03-16T12:39:31;95139.31;;;9.13;100.00
21658;BME280;10990;48.174;9.782;2023-03-16T12:42:14;95171.47;;;8.90;100.00
21658;BME280;10990;48.174;9.782;2023-03-16T12:44:53;95203.94;;;8.91;100.00
21658;BME280;10990;48.174;9.782;2023-03-16T12:47:27;95209.19;;;8.91;100.00
21658;BME280;10990;48.174;9.782;2023-03-16T12:50:03;95229.38;;;9.00;100.00
21658;BME280;10990;48.174;9.782;2023-03-16T12:52:38;95330.41;;;9.10;100.00
21658;BME280;10990;48.174;9.782;2023-03-16T12:55:12;95412.69;;;8.86;100.00
21658;BME280;10990;48.174;9.782;2023-03-16T12:57:40;95444.97;;;9.08;100.00
21658;BME280;10990;48.174;9.782;2023-03-16T13:00:11;95465.44;;;8.96;100.00
21658;BME280;10990;48.174;9.782;2023-03-16T13:02:41;95459.81;;;9.36;100.00
21658;BME280;10990;48.174;9.782;2023-03-16T13:05:11;95459.47;;;9.95;100.00
21658;BME280;10990;48.174;9.782;2023-03-16T13:07:45;95500.25;;;9.64;100.00
21658;BME280;10990;48.174;9.782;2023-03-16T13:10:14;95529.69;;;9.70;100.00
21658;BME280;10990;48.174;9.782;2023-03-16T13:12:42;95582.13;;;9.17;100.00
21658;BME280;10990;48.174;9.782;2023-03-16T13:15:28;95598.66;;;9.29;100.00